sensor_id;sensor_type;location;lat;lon;timestamp;P1;durP1;ratioP1;P2;durP2;ratioP2
2940;SDS011;1480;51.456;6.670;2023-11-19T00:01:32;8.07;;;5.57;;
2940;SDS011;1480;51.456;6.670;2023-11-19T00:03:59;10.00;;;6.20;;
2940;SDS011;1480;51.456;6.670;2023-11-19T00:06:27;6.27;;;5.67;;
2940;SDS011;1480;51.456;6.670;2023-11-19T00:08:54;7.20;;;5.70;;
2940;SDS011;1480;51.456;6.670;2023-11-19T00:11:20;6.67;;;5.10;;
2940;SDS011;1480;51.456;6.670;2023-11-19T00:13:47;7.50;;;5.93;;
2940;SDS011;1480;51.456;6.670;2023-11-19T00:16:14;11.47;;;5.77;;
2940;SDS011;1480;51.456;6.670;2023-11-19T00:18:41;7.00;;;6.00;;
2940;SDS011;1480;51.456;6.670;2023-11-19T00:21:08;8.67;;;6.10;;
2940;SDS011;1480;51.456;6.670;2023-11-19T00:23:36;8.50;;;5.40;;
2940;SDS011;1480;51.456;6.670;2023-11-19T00:26:03;8.17;;;6.63;;
2940;SDS011;1480;51.456;6.670;2023-11-19T00:28:31;9.60;;;6.10;;
2940;SDS011;1480;51.456;6.670;2023-11-19T00:30:59;8.50;;;5.73;;
2940;SDS011;1480;51.456;6.670;2023-11-19T00:33:25;11.10;;;7.27;;
2940;SDS011;1480;51.456;6.670;2023-11-19T00:35:52;9.40;;;6.07;;
2940;SDS011;1480;51.456;6.670;2023-11-19T00:38:19;10.37;;;6.60;;
2940;SDS011;1480;51.456;6.670;2023-11-19T00:40:47;9.57;;;6.20;;
2940;SDS011;1480;51.456;6.670;2023-11-19T00:43:13;9.53;;;6.73;;
2940;SDS011;1480;51.456;6.670;2023-11-19T00:45:40;7.10;;;6.40;;
2940;SDS011;1480;51.456;6.670;2023-11-19T00:48:08;9.97;;;6.37;;
2940;SDS011;1480;51.456;6.670;2023-11-19T00:50:34;10.57;;;6.10;;
2940;SDS011;1480;51.456;6.670;2023-11-19T00:53:01;9.17;;;6.57;;
2940;SDS011;1480;51.456;6.670;2023-11-19T00:55:28;7.17;;;5.83;;
2940;SDS011;1480;51.456;6.670;2023-11-19T00:57:56;7.00;;;5.77;;
2940;SDS011;1480;51.456;6.670;2023-11-19T01:00:23;7.50;;;5.73;;
2940;SDS011;1480;51.456;6.670;2023-11-19T01:02:52;8.70;;;5.93;;
2940;SDS011;1480;51.456;6.670;2023-11-19T01:05:19;7.73;;;6.10;;
2940;SDS011;1480;51.456;6.670;2023-11-19T01:07:47;9.20;;;5.87;;
2940;SDS011;1480;51.456;6.670;2023-11-19T01:10:14;7.90;;;6.00;;
2940;SDS011;1480;51.456;6.670;2023-11-19T01:12:41;7.37;;;5.60;;
2940;SDS011;1480;51.456;6.670;2023-11-19T01:15:10;6.83;;;5.63;;
2940;SDS011;1480;51.456;6.670;2023-11-19T01:17:36;10.67;;;5.33;;
2940;SDS011;1480;51.456;6.670;2023-11-19T01:20:04;6.93;;;5.00;;
2940;SDS011;1480;51.456;6.670;2023-11-19T01:22:32;6.90;;;5.30;;
2940;SDS011;1480;51.456;6.670;2023-11-19T01:24:59;7.20;;;6.20;;
2940;SDS011;1480;51.456;6.670;2023-11-19T01:27:27;8.33;;;5.60;;
2940;SDS011;1480;51.456;6.670;2023-11-19T01:29:53;6.60;;;5.70;;
2940;SDS011;1480;51.456;6.670;2023-11-19T01:32:22;7.40;;;5.23;;
2940;SDS011;1480;51.456;6.670;2023-11-19T01:34:49;7.13;;;5.03;;
2940;SDS011;1480;51.456;6.670;2023-11-19T01:37:16;7.57;;;5.87;;
2940;SDS011;1480;51.456;6.670;2023-11-19T01:39:43;7.83;;;6.57;;
2940;SDS011;1480;51.456;6.670;2023-11-19T01:42:10;6.27;;;5.43;;
2940;SDS011;1480;51.456;6.670;2023-11-19T01:44:37;6.63;;;5.47;;
2940;SDS011;1480;51.456;6.670;2023-11-19T01:47:04;6.90;;;4.60;;
2940;SDS011;1480;51.456;6.670;2023-11-19T01:49:32;6.57;;;5.87;;
2940;SDS011;1480;51.456;6.670;2023-11-19T01:51:59;4.70;;;4.20;;
2940;SDS011;1480;51.456;6.670;2023-11-19T01:54:26;5.97;;;4.63;;
2940;SDS011;1480;51.456;6.670;2023-11-19T01:56:54;5.57;;;4.70;;
2940;SDS011;1480;51.456;6.670;2023-11-19T01:59:23;6.60;;;5.40;;
2940;SDS011;1480;51.456;6.670;2023-11-19T02:01:52;10.67;;;5.53;;
2940;SDS011;1480;51.456;6.670;2023-11-19T02:04:19;8.80;;;5.50;;
2940;SDS011;1480;51.456;6.670;2023-11-19T02:06:49;7.07;;;4.70;;
2940;SDS011;1480;51.456;6.670;2023-11-19T02:09:17;7.00;;;4.67;;
2940;SDS011;1480;51.456;6.670;2023-11-19T02:11:44;6.03;;;4.37;;
2940;SDS011;1480;51.456;6.670;2023-11-19T02:14:14;7.23;;;5.03;;
2940;SDS011;1480;51.456;6.670;2023-11-19T02:16:41;5.47;;;4.30;;
2940;SDS011;1480;51.456;6.670;2023-11-19T02:19:08;5.80;;;4.73;;
2940;SDS011;1480;51.456;6.670;2023-11-19T02:21:36;4.53;;;3.73;;
2940;SDS011;1480;51.456;6.670;2023-11-19T02:24:05;6.93;;;4.10;;
2940;SDS011;1480;51.456;6.670;2023-11-19T02:26:35;6.03;;;3.60;;
2940;SDS011;1480;51.456;6.670;2023-11-19T02:29:06;3.37;;;2.80;;
2940;SDS011;1480;51.456;6.670;2023-11-19T02:31:33;6.43;;;3.47;;
2940;SDS011;1480;51.456;6.670;2023-11-19T02:34:00;5.73;;;3.13;;
2940;SDS011;1480;51.456;6.670;2023-11-19T02:36:27;7.83;;;3.23;;
2940;SDS011;1480;51.456;6.670;2023-11-19T02:38:54;7.63;;;4.00;;
2940;SDS011;1480;51.456;6.670;2023-11-19T02:41:21;4.63;;;3.17;;
2940;SDS011;1480;51.456;6.670;2023-11-19T02:43:47;14.07;;;3.50;;
2940;SDS011;1480;51.456;6.670;2023-11-19T02:46:16;6.33;;;3.20;;
2940;SDS011;1480;51.456;6.670;2023-11-19T02:48:44;15.83;;;3.60;;
2940;SDS011;1480;51.456;6.670;2023-11-19T02:51:11;9.90;;;3.50;;
2940;SDS011;1480;51.456;6.670;2023-11-19T02:53:38;11.20;;;3.67;;
2940;SDS011;1480;51.456;6.670;2023-11-19T02:56:05;5.90;;;4.10;;
2940;SDS011;1480;51.456;6.670;2023-11-19T02:58:42;8.60;;;3.57;;
2940;SDS011;1480;51.456;6.670;2023-11-19T03:01:11;10.00;;;3.63;;
2940;SDS011;1480;51.456;6.670;2023-11-19T03:03:49;4.73;;;3.70;;
2940;SDS011;1480;51.456;6.670;2023-11-19T03:06:19;13.63;;;4.00;;
2940;SDS011;1480;51.456;6.670;2023-11-19T03:08:46;14.00;;;3.27;;
2940;SDS011;1480;51.456;6.670;2023-11-19T03:11:13;5.80;;;3.47;;
2940;SDS011;1480;51.456;6.670;2023-11-19T03:13:40;5.77;;;3.23;;
2940;SDS011;1480;51.456;6.670;2023-11-19T03:16:07;9.10;;;4.20;;
2940;SDS011;1480;51.456;6.670;2023-11-19T03:18:34;13.33;;;3.33;;
2940;SDS011;1480;51.456;6.670;2023-11-19T03:21:03;9.20;;;3.60;;
2940;SDS011;1480;51.456;6.670;2023-11-19T03:23:29;7.40;;;3.20;;
2940;SDS011;1480;51.456;6.670;2023-11-19T03:25:57;5.90;;;4.23;;
2940;SDS011;1480;51.456;6.670;2023-11-19T03:28:24;8.50;;;3.87;;
2940;SDS011;1480;51.456;6.670;2023-11-19T03:30:51;12.73;;;4.20;;
2940;SDS011;1480;51.456;6.670;2023-11-19T03:33:18;13.40;;;4.50;;
2940;SDS011;1480;51.456;6.670;2023-11-19T03:35:46;11.00;;;3.73;;
2940;SDS011;1480;51.456;6.670;2023-11-19T03:38:14;12.60;;;4.33;;
2940;SDS011;1480;51.456;6.670;2023-11-19T03:40:40;10.00;;;4.30;;
2940;SDS011;1480;51.456;6.670;2023-11-19T03:43:07;16.50;;;3.70;;
2940;SDS011;1480;51.456;6.670;2023-11-19T03:45:34;19.63;;;3.93;;
2940;SDS011;1480;51.456;6.670;2023-11-19T03:48:01;15.60;;;4.43;;
2940;SDS011;1480;51.456;6.670;2023-11-19T03:50:28;16.80;;;5.20;;
2940;SDS011;1480;51.456;6.670;2023-11-19T03:52:54;12.77;;;3.63;;
2940;SDS011;1480;51.456;6.670;2023-11-19T03:55:23;17.43;;;4.03;;
2940;SDS011;1480;51.456;6.670;2023-11-19T03:57:50;13.73;;;4.17;;
2940;SDS011;1480;51.456;6.670;2023-11-19T04:00:17;13.73;;;4.10;;
2940;SDS011;1480;51.456;6.670;2023-11-19T04:02:46;13.63;;;4.33;;
2940;SDS011;1480;51.456;6.670;2023-11-19T04:05:13;10.27;;;4.50;;
2940;SDS011;1480;51.456;6.670;2023-11-19T04:07:39;8.37;;;4.07;;
2940;SDS011;1480;51.456;6.670;2023-11-19T04:10:06;14.83;;;4.17;;
2940;SDS011;1480;51.456;6.670;2023-11-19T04:12:35;13.50;;;3.60;;
2940;SDS011;1480;51.456;6.670;2023-11-19T04:15:02;17.93;;;5.77;;
2940;SDS011;1480;51.456;6.670;2023-11-19T04:17:29;12.37;;;4.43;;
2940;SDS011;1480;51.456;6.670;2023-11-19T04:19:56;15.47;;;5.27;;
2940;SDS011;1480;51.456;6.670;2023-11-19T04:22:23;18.57;;;4.63;;
2940;SDS011;1480;51.456;6.670;2023-11-19T04:24:50;21.33;;;4.53;;
2940;SDS011;1480;51.456;6.670;2023-11-19T04:27:17;19.67;;;4.47;;
2940;SDS011;1480;51.456;6.670;2023-11-19T04:29:45;14.70;;;4.47;;
2940;SDS011;1480;51.456;6.670;2023-11-19T04:32:12;11.87;;;5.73;;
2940;SDS011;1480;51.456;6.670;2023-11-19T04:34:38;29.53;;;6.30;;
2940;SDS011;1480;51.456;6.670;2023-11-19T04:37:05;18.37;;;5.80;;
2940;SDS011;1480;51.456;6.670;2023-11-19T04:39:32;15.73;;;4.23;;
2940;SDS011;1480;51.456;6.670;2023-11-19T04:41:58;12.23;;;5.37;;
2940;SDS011;1480;51.456;6.670;2023-11-19T04:44:25;9.33;;;4.10;;
2940;SDS011;1480;51.456;6.670;2023-11-19T04:46:53;20.37;;;5.83;;
2940;SDS011;1480;51.456;6.670;2023-11-19T04:49:20;22.97;;;6.80;;
2940;SDS011;1480;51.456;6.670;2023-11-19T04:51:47;19.77;;;5.27;;
2940;SDS011;1480;51.456;6.670;2023-11-19T04:54:13;12.93;;;4.60;;
2940;SDS011;1480;51.456;6.670;2023-11-19T04:56:40;39.00;;;5.10;;
2940;SDS011;1480;51.456;6.670;2023-11-19T04:59:07;17.63;;;4.93;;
2940;SDS011;1480;51.456;6.670;2023-11-19T05:01:34;24.60;;;4.93;;
2940;SDS011;1480;51.456;6.670;2023-11-19T05:04:02;22.10;;;8.07;;
2940;SDS011;1480;51.456;6.670;2023-11-19T05:06:29;15.73;;;5.77;;
2940;SDS011;1480;51.456;6.670;2023-11-19T05:08:56;14.20;;;5.37;;
2940;SDS011;1480;51.456;6.670;2023-11-19T05:11:26;14.33;;;6.90;;
2940;SDS011;1480;51.456;6.670;2023-11-19T05:13:53;13.57;;;4.73;;
2940;SDS011;1480;51.456;6.670;2023-11-19T05:16:19;23.80;;;4.77;;
2940;SDS011;1480;51.456;6.670;2023-11-19T05:18:46;24.53;;;6.70;;
2940;SDS011;1480;51.456;6.670;2023-11-19T05:21:15;15.20;;;4.50;;
2940;SDS011;1480;51.456;6.670;2023-11-19T05:23:42;17.43;;;4.90;;
2940;SDS011;1480;51.456;6.670;2023-11-19T05:26:16;11.43;;;4.77;;
2940;SDS011;1480;51.456;6.670;2023-11-19T05:28:43;14.13;;;5.30;;
2940;SDS011;1480;51.456;6.670;2023-11-19T05:31:10;17.17;;;4.17;;
2940;SDS011;1480;51.456;6.670;2023-11-19T05:33:37;21.70;;;3.93;;
2940;SDS011;1480;51.456;6.670;2023-11-19T05:36:04;20.00;;;6.13;;
2940;SDS011;1480;51.456;6.670;2023-11-19T05:38:34;12.20;;;4.40;;
2940;SDS011;1480;51.456;6.670;2023-11-19T05:41:01;20.33;;;4.40;;
2940;SDS011;1480;51.456;6.670;2023-11-19T05:43:28;15.73;;;5.30;;
2940;SDS011;1480;51.456;6.670;2023-11-19T05:45:54;22.47;;;4.97;;
2940;SDS011;1480;51.456;6.670;2023-11-19T05:48:21;14.50;;;6.20;;
2940;SDS011;1480;51.456;6.670;2023-11-19T05:50:48;19.03;;;5.80;;
2940;SDS011;1480;51.456;6.670;2023-11-19T05:53:15;19.90;;;4.97;;
2940;SDS011;1480;51.456;6.670;2023-11-19T05:55:43;16.90;;;3.50;;
2940;SDS011;1480;51.456;6.670;2023-11-19T05:58:14;22.73;;;5.10;;
2940;SDS011;1480;51.456;6.670;2023-11-19T06:00:40;12.30;;;5.70;;
2940;SDS011;1480;51.456;6.670;2023-11-19T06:03:07;32.63;;;6.90;;
2940;SDS011;1480;51.456;6.670;2023-11-19T06:05:34;16.63;;;5.47;;
2940;SDS011;1480;51.456;6.670;2023-11-19T06:08:01;15.83;;;5.23;;
2940;SDS011;1480;51.456;6.670;2023-11-19T06:10:28;16.90;;;4.70;;
2940;SDS011;1480;51.456;6.670;2023-11-19T06:12:58;26.30;;;5.30;;
2940;SDS011;1480;51.456;6.670;2023-11-19T06:15:26;26.73;;;5.17;;
2940;SDS011;1480;51.456;6.670;2023-11-19T06:17:52;23.43;;;5.57;;
2940;SDS011;1480;51.456;6.670;2023-11-19T06:20:19;19.17;;;5.00;;
2940;SDS011;1480;51.456;6.670;2023-11-19T06:22:46;9.30;;;5.00;;
2940;SDS011;1480;51.456;6.670;2023-11-19T06:25:13;20.80;;;4.53;;
2940;SDS011;1480;51.456;6.670;2023-11-19T06:27:41;13.50;;;5.07;;
2940;SDS011;1480;51.456;6.670;2023-11-19T06:30:09;20.97;;;5.07;;
2940;SDS011;1480;51.456;6.670;2023-11-19T06:32:37;20.13;;;5.00;;
2940;SDS011;1480;51.456;6.670;2023-11-19T06:35:04;19.80;;;5.90;;
2940;SDS011;1480;51.456;6.670;2023-11-19T06:37:31;18.77;;;6.40;;
2940;SDS011;1480;51.456;6.670;2023-11-19T06:39:58;27.60;;;5.50;;
2940;SDS011;1480;51.456;6.670;2023-11-19T06:42:24;22.40;;;5.03;;
2940;SDS011;1480;51.456;6.670;2023-11-19T06:44:51;28.00;;;5.63;;
2940;SDS011;1480;51.456;6.670;2023-11-19T06:47:19;39.30;;;6.70;;
2940;SDS011;1480;51.456;6.670;2023-11-19T06:49:46;27.90;;;7.57;;
2940;SDS011;1480;51.456;6.670;2023-11-19T06:52:12;18.67;;;5.40;;
2940;SDS011;1480;51.456;6.670;2023-11-19T06:54:39;19.83;;;5.40;;
2940;SDS011;1480;51.456;6.670;2023-11-19T06:57:06;26.17;;;5.90;;
2940;SDS011;1480;51.456;6.670;2023-11-19T06:59:34;18.30;;;4.73;;
2940;SDS011;1480;51.456;6.670;2023-11-19T07:02:01;18.87;;;4.13;;
2940;SDS011;1480;51.456;6.670;2023-11-19T07:04:29;30.00;;;5.80;;
2940;SDS011;1480;51.456;6.670;2023-11-19T07:06:56;18.33;;;4.63;;
2940;SDS011;1480;51.456;6.670;2023-11-19T07:09:22;23.93;;;6.10;;
2940;SDS011;1480;51.456;6.670;2023-11-19T07:11:49;19.53;;;4.63;;
2940;SDS011;1480;51.456;6.670;2023-11-19T07:14:17;23.93;;;5.40;;
2940;SDS011;1480;51.456;6.670;2023-11-19T07:16:44;18.40;;;5.13;;
2940;SDS011;1480;51.456;6.670;2023-11-19T07:19:11;28.07;;;4.80;;
2940;SDS011;1480;51.456;6.670;2023-11-19T07:21:42;14.33;;;4.47;;
2940;SDS011;1480;51.456;6.670;2023-11-19T07:24:10;17.20;;;3.90;;
2940;SDS011;1480;51.456;6.670;2023-11-19T07:26:40;24.03;;;5.07;;
2940;SDS011;1480;51.456;6.670;2023-11-19T07:29:08;34.63;;;7.00;;
2940;SDS011;1480;51.456;6.670;2023-11-19T07:31:35;28.33;;;5.23;;
2940;SDS011;1480;51.456;6.670;2023-11-19T07:34:02;7.67;;;4.07;;
2940;SDS011;1480;51.456;6.670;2023-11-19T07:36:28;14.43;;;3.90;;
2940;SDS011;1480;51.456;6.670;2023-11-19T07:38:57;21.77;;;4.20;;
2940;SDS011;1480;51.456;6.670;2023-11-19T07:41:24;18.00;;;4.50;;
2940;SDS011;1480;51.456;6.670;2023-11-19T07:43:51;14.37;;;3.50;;
2940;SDS011;1480;51.456;6.670;2023-11-19T07:46:18;18.07;;;3.07;;
2940;SDS011;1480;51.456;6.670;2023-11-19T07:48:45;11.73;;;3.50;;
2940;SDS011;1480;51.456;6.670;2023-11-19T07:51:13;31.43;;;3.70;;
2940;SDS011;1480;51.456;6.670;2023-11-19T07:53:39;18.43;;;3.27;;
2940;SDS011;1480;51.456;6.670;2023-11-19T07:56:08;22.30;;;3.40;;
2940;SDS011;1480;51.456;6.670;2023-11-19T07:58:35;15.13;;;5.67;;
2940;SDS011;1480;51.456;6.670;2023-11-19T08:01:02;14.50;;;4.07;;
2940;SDS011;1480;51.456;6.670;2023-11-19T08:03:29;13.20;;;3.57;;
2940;SDS011;1480;51.456;6.670;2023-11-19T08:05:59;16.13;;;4.77;;
2940;SDS011;1480;51.456;6.670;2023-11-19T08:08:25;15.73;;;3.50;;
2940;SDS011;1480;51.456;6.670;2023-11-19T08:10:54;18.63;;;3.87;;
2940;SDS011;1480;51.456;6.670;2023-11-19T08:13:23;17.63;;;3.17;;
2940;SDS011;1480;51.456;6.670;2023-11-19T08:15:49;8.47;;;2.90;;
2940;SDS011;1480;51.456;6.670;2023-11-19T08:18:16;18.57;;;4.63;;
2940;SDS011;1480;51.456;6.670;2023-11-19T08:20:43;15.07;;;3.70;;
2940;SDS011;1480;51.456;6.670;2023-11-19T08:23:10;20.53;;;5.30;;
2940;SDS011;1480;51.456;6.670;2023-11-19T08:25:36;19.13;;;6.03;;
2940;SDS011;1480;51.456;6.670;2023-11-19T08:28:03;11.00;;;3.63;;
2940;SDS011;1480;51.456;6.670;2023-11-19T08:30:31;12.13;;;3.23;;
2940;SDS011;1480;51.456;6.670;2023-11-19T08:32:58;22.73;;;3.70;;
2940;SDS011;1480;51.456;6.670;2023-11-19T08:35:28;17.87;;;4.00;;
2940;SDS011;1480;51.456;6.670;2023-11-19T08:37:55;9.77;;;3.63;;
2940;SDS011;1480;51.456;6.670;2023-11-19T08:40:22;7.87;;;2.40;;
2940;SDS011;1480;51.456;6.670;2023-11-19T08:42:49;16.07;;;4.07;;
2940;SDS011;1480;51.456;6.670;2023-11-19T08:45:15;11.93;;;3.60;;
2940;SDS011;1480;51.456;6.670;2023-11-19T08:47:44;19.57;;;3.63;;
2940;SDS011;1480;51.456;6.670;2023-11-19T08:50:10;10.60;;;3.50;;
2940;SDS011;1480;51.456;6.670;2023-11-19T08:52:37;18.83;;;3.87;;
2940;SDS011;1480;51.456;6.670;2023-11-19T08:55:04;30.43;;;6.00;;
2940;SDS011;1480;51.456;6.670;2023-11-19T08:57:31;13.83;;;3.30;;
2940;SDS011;1480;51.456;6.670;2023-11-19T08:59:58;21.10;;;2.80;;
2940;SDS011;1480;51.456;6.670;2023-11-19T09:02:25;13.07;;;3.20;;
2940;SDS011;1480;51.456;6.670;2023-11-19T09:04:53;20.23;;;4.20;;
2940;SDS011;1480;51.456;6.670;2023-11-19T09:07:20;15.77;;;4.00;;
2940;SDS011;1480;51.456;6.670;2023-11-19T09:09:47;14.20;;;3.03;;
2940;SDS011;1480;51.456;6.670;2023-11-19T09:12:14;19.37;;;3.90;;
2940;SDS011;1480;51.456;6.670;2023-11-19T09:14:40;10.40;;;3.10;;
2940;SDS011;1480;51.456;6.670;2023-11-19T09:17:07;15.20;;;3.70;;
2940;SDS011;1480;51.456;6.670;2023-11-19T09:19:34;9.43;;;3.10;;
2940;SDS011;1480;51.456;6.670;2023-11-19T09:22:02;13.30;;;3.50;;
2940;SDS011;1480;51.456;6.670;2023-11-19T09:24:30;23.87;;;3.87;;
2940;SDS011;1480;51.456;6.670;2023-11-19T09:26:56;13.63;;;2.90;;
2940;SDS011;1480;51.456;6.670;2023-11-19T09:29:23;17.20;;;3.27;;
2940;SDS011;1480;51.456;6.670;2023-11-19T09:31:50;13.83;;;4.90;;
2940;SDS011;1480;51.456;6.670;2023-11-19T09:34:16;11.37;;;3.50;;
2940;SDS011;1480;51.456;6.670;2023-11-19T09:36:43;14.93;;;2.87;;
2940;SDS011;1480;51.456;6.670;2023-11-19T09:39:11;16.00;;;3.30;;
2940;SDS011;1480;51.456;6.670;2023-11-19T09:41:40;18.57;;;4.40;;
2940;SDS011;1480;51.456;6.670;2023-11-19T09:44:07;17.53;;;2.70;;
2940;SDS011;1480;51.456;6.670;2023-11-19T09:46:34;20.83;;;4.70;;
2940;SDS011;1480;51.456;6.670;2023-11-19T09:49:02;29.53;;;3.80;;
2940;SDS011;1480;51.456;6.670;2023-11-19T09:51:29;10.77;;;2.77;;
2940;SDS011;1480;51.456;6.670;2023-11-19T09:53:55;16.07;;;3.07;;
2940;SDS011;1480;51.456;6.670;2023-11-19T09:56:24;14.57;;;4.20;;
2940;SDS011;1480;51.456;6.670;2023-11-19T09:58:50;9.93;;;3.13;;
2940;SDS011;1480;51.456;6.670;2023-11-19T10:01:17;15.17;;;3.53;;
2940;SDS011;1480;51.456;6.670;2023-11-19T10:03:44;11.00;;;2.53;;
2940;SDS011;1480;51.456;6.670;2023-11-19T10:06:13;17.90;;;3.70;;
2940;SDS011;1480;51.456;6.670;2023-11-19T10:08:41;14.40;;;3.40;;
2940;SDS011;1480;51.456;6.670;2023-11-19T10:11:08;12.53;;;3.70;;
2940;SDS011;1480;51.456;6.670;2023-11-19T10:13:38;26.00;;;4.60;;
2940;SDS011;1480;51.456;6.670;2023-11-19T10:16:04;10.80;;;2.97;;
2940;SDS011;1480;51.456;6.670;2023-11-19T10:18:34;11.40;;;3.10;;
2940;SDS011;1480;51.456;6.670;2023-11-19T10:21:03;18.33;;;4.27;;
2940;SDS011;1480;51.456;6.670;2023-11-19T10:23:31;19.47;;;4.53;;
2940;SDS011;1480;51.456;6.670;2023-11-19T10:26:02;13.90;;;2.80;;
2940;SDS011;1480;51.456;6.670;2023-11-19T10:28:35;16.80;;;3.03;;
2940;SDS011;1480;51.456;6.670;2023-11-19T10:31:08;15.33;;;3.37;;
2940;SDS011;1480;51.456;6.670;2023-11-19T10:33:35;12.00;;;2.67;;
2940;SDS011;1480;51.456;6.670;2023-11-19T10:36:01;22.83;;;4.60;;
2940;SDS011;1480;51.456;6.670;2023-11-19T10:38:28;19.13;;;2.80;;
2940;SDS011;1480;51.456;6.670;2023-11-19T10:40:55;10.00;;;3.33;;
2940;SDS011;1480;51.456;6.670;2023-11-19T10:43:22;16.17;;;3.13;;
2940;SDS011;1480;51.456;6.670;2023-11-19T10:45:51;14.70;;;2.40;;
2940;SDS011;1480;51.456;6.670;2023-11-19T10:48:18;10.53;;;3.03;;
2940;SDS011;1480;51.456;6.670;2023-11-19T10:50:46;16.20;;;3.53;;
2940;SDS011;1480;51.456;6.670;2023-11-19T10:53:16;11.03;;;3.10;;
2940;SDS011;1480;51.456;6.670;2023-11-19T10:55:45;9.07;;;1.70;;
2940;SDS011;1480;51.456;6.670;2023-11-19T10:58:15;11.67;;;2.23;;
2940;SDS011;1480;51.456;6.670;2023-11-19T11:00:43;10.43;;;2.10;;
2940;SDS011;1480;51.456;6.670;2023-11-19T11:03:15;16.57;;;4.33;;
2940;SDS011;1480;51.456;6.670;2023-11-19T11:05:43;10.00;;;3.20;;
2940;SDS011;1480;51.456;6.670;2023-11-19T11:08:13;13.40;;;3.70;;
2940;SDS011;1480;51.456;6.670;2023-11-19T11:10:42;8.10;;;2.53;;
2940;SDS011;1480;51.456;6.670;2023-11-19T11:13:10;15.60;;;3.27;;
2940;SDS011;1480;51.456;6.670;2023-11-19T11:15:37;22.43;;;4.23;;
2940;SDS011;1480;51.456;6.670;2023-11-19T11:18:04;12.77;;;2.97;;
2940;SDS011;1480;51.456;6.670;2023-11-19T11:20:35;16.20;;;3.20;;
2940;SDS011;1480;51.456;6.670;2023-11-19T11:23:07;20.23;;;2.80;;
2940;SDS011;1480;51.456;6.670;2023-11-19T11:25:56;13.97;;;2.73;;
2940;SDS011;1480;51.456;6.670;2023-11-19T11:28:28;15.30;;;2.63;;
2940;SDS011;1480;51.456;6.670;2023-11-19T11:31:06;16.37;;;3.33;;
2940;SDS011;1480;51.456;6.670;2023-11-19T11:33:41;15.27;;;2.63;;
2940;SDS011;1480;51.456;6.670;2023-11-19T11:36:22;13.87;;;3.30;;
2940;SDS011;1480;51.456;6.670;2023-11-19T11:38:49;14.93;;;5.60;;
2940;SDS011;1480;51.456;6.670;2023-11-19T11:41:19;12.67;;;1.80;;
2940;SDS011;1480;51.456;6.670;2023-11-19T11:43:48;10.03;;;2.90;;
2940;SDS011;1480;51.456;6.670;2023-11-19T11:49:24;8.33;;;2.13;;
2940;SDS011;1480;51.456;6.670;2023-11-19T11:52:02;12.40;;;4.10;;
2940;SDS011;1480;51.456;6.670;2023-11-19T11:54:30;9.13;;;2.73;;
2940;SDS011;1480;51.456;6.670;2023-11-19T11:57:01;16.83;;;2.80;;
2940;SDS011;1480;51.456;6.670;2023-11-19T11:59:31;16.77;;;2.87;;
2940;SDS011;1480;51.456;6.670;2023-11-19T12:02:03;11.07;;;2.47;;
2940;SDS011;1480;51.456;6.670;2023-11-19T12:04:29;5.73;;;1.83;;
2940;SDS011;1480;51.456;6.670;2023-11-19T12:07:05;6.23;;;2.00;;
2940;SDS011;1480;51.456;6.670;2023-11-19T12:09:32;9.57;;;2.10;;
2940;SDS011;1480;51.456;6.670;2023-11-19T12:12:17;14.10;;;2.83;;
2940;SDS011;1480;51.456;6.670;2023-11-19T12:17:40;8.63;;;2.27;;
2940;SDS011;1480;51.456;6.670;2023-11-19T12:20:10;9.47;;;1.87;;
2940;SDS011;1480;51.456;6.670;2023-11-19T12:22:38;9.50;;;1.70;;
2940;SDS011;1480;51.456;6.670;2023-11-19T12:25:06;7.63;;;2.17;;
2940;SDS011;1480;51.456;6.670;2023-11-19T12:27:34;6.60;;;1.97;;
2940;SDS011;1480;51.456;6.670;2023-11-19T12:30:00;10.10;;;2.67;;
2940;SDS011;1480;51.456;6.670;2023-11-19T12:32:37;12.10;;;2.07;;
2940;SDS011;1480;51.456;6.670;2023-11-19T12:35:04;13.20;;;2.03;;
2940;SDS011;1480;51.456;6.670;2023-11-19T12:37:32;14.80;;;2.30;;
2940;SDS011;1480;51.456;6.670;2023-11-19T12:40:00;8.10;;;2.57;;
2940;SDS011;1480;51.456;6.670;2023-11-19T12:42:34;10.23;;;2.73;;
2940;SDS011;1480;51.456;6.670;2023-11-19T12:45:02;8.83;;;2.53;;
2940;SDS011;1480;51.456;6.670;2023-11-19T12:47:29;16.87;;;4.23;;
2940;SDS011;1480;51.456;6.670;2023-11-19T12:49:56;6.60;;;2.57;;
2940;SDS011;1480;51.456;6.670;2023-11-19T12:52:22;12.53;;;2.23;;
2940;SDS011;1480;51.456;6.670;2023-11-19T12:54:49;12.53;;;2.27;;
2940;SDS011;1480;51.456;6.670;2023-11-19T12:57:17;10.73;;;1.80;;
2940;SDS011;1480;51.456;6.670;2023-11-19T12:59:54;9.37;;;1.93;;
2940;SDS011;1480;51.456;6.670;2023-11-19T13:02:21;3.70;;;2.07;;
2940;SDS011;1480;51.456;6.670;2023-11-19T13:04:48;2.70;;;1.57;;
2940;SDS011;1480;51.456;6.670;2023-11-19T13:07:19;9.00;;;3.00;;
2940;SDS011;1480;51.456;6.670;2023-11-19T13:09:46;5.70;;;1.83;;
2940;SDS011;1480;51.456;6.670;2023-11-19T13:12:14;10.83;;;2.90;;
2940;SDS011;1480;51.456;6.670;2023-11-19T13:14:43;11.10;;;2.60;;
2940;SDS011;1480;51.456;6.670;2023-11-19T13:17:15;8.00;;;2.13;;
2940;SDS011;1480;51.456;6.670;2023-11-19T13:19:41;9.70;;;2.40;;
2940;SDS011;1480;51.456;6.670;2023-11-19T13:22:08;10.50;;;1.93;;
2940;SDS011;1480;51.456;6.670;2023-11-19T13:24:35;13.07;;;2.53;;
2940;SDS011;1480;51.456;6.670;2023-11-19T13:27:02;11.03;;;2.47;;
2940;SDS011;1480;51.456;6.670;2023-11-19T13:29:29;13.83;;;2.20;;
2940;SDS011;1480;51.456;6.670;2023-11-19T13:31:57;12.50;;;1.97;;
2940;SDS011;1480;51.456;6.670;2023-11-19T13:34:25;10.07;;;2.40;;
2940;SDS011;1480;51.456;6.670;2023-11-19T13:36:51;12.63;;;2.30;;
2940;SDS011;1480;51.456;6.670;2023-11-19T13:39:18;9.67;;;4.00;;
2940;SDS011;1480;51.456;6.670;2023-11-19T13:41:48;6.10;;;2.23;;
2940;SDS011;1480;51.456;6.670;2023-11-19T13:44:15;10.00;;;2.80;;
2940;SDS011;1480;51.456;6.670;2023-11-19T13:46:44;15.57;;;2.83;;
2940;SDS011;1480;51.456;6.670;2023-11-19T13:49:12;13.27;;;2.63;;
2940;SDS011;1480;51.456;6.670;2023-11-19T13:51:39;9.60;;;1.93;;
2940;SDS011;1480;51.456;6.670;2023-11-19T13:54:04;16.00;;;4.40;;
2940;SDS011;1480;51.456;6.670;2023-11-19T13:56:31;11.60;;;2.60;;
2940;SDS011;1480;51.456;6.670;2023-11-19T13:58:58;6.53;;;1.93;;
2940;SDS011;1480;51.456;6.670;2023-11-19T14:01:25;16.47;;;2.83;;
2940;SDS011;1480;51.456;6.670;2023-11-19T14:03:52;21.40;;;3.50;;
2940;SDS011;1480;51.456;6.670;2023-11-19T14:06:20;7.20;;;2.20;;
2940;SDS011;1480;51.456;6.670;2023-11-19T14:08:47;7.17;;;2.23;;
2940;SDS011;1480;51.456;6.670;2023-11-19T14:11:13;16.30;;;2.47;;
2940;SDS011;1480;51.456;6.670;2023-11-19T14:13:41;6.97;;;2.30;;
2940;SDS011;1480;51.456;6.670;2023-11-19T14:16:08;19.23;;;3.40;;
2940;SDS011;1480;51.456;6.670;2023-11-19T14:18:35;10.93;;;2.03;;
2940;SDS011;1480;51.456;6.670;2023-11-19T14:21:02;10.37;;;3.33;;
2940;SDS011;1480;51.456;6.670;2023-11-19T14:23:31;9.30;;;2.30;;
2940;SDS011;1480;51.456;6.670;2023-11-19T14:25:58;20.57;;;2.80;;
2940;SDS011;1480;51.456;6.670;2023-11-19T14:28:24;6.40;;;2.57;;
2940;SDS011;1480;51.456;6.670;2023-11-19T14:30:52;15.80;;;2.60;;
2940;SDS011;1480;51.456;6.670;2023-11-19T14:33:18;10.50;;;2.87;;
2940;SDS011;1480;51.456;6.670;2023-11-19T14:35:45;7.60;;;2.47;;
2940;SDS011;1480;51.456;6.670;2023-11-19T14:38:13;9.10;;;2.93;;
2940;SDS011;1480;51.456;6.670;2023-11-19T14:40:41;6.20;;;1.80;;
2940;SDS011;1480;51.456;6.670;2023-11-19T14:43:08;6.13;;;2.33;;
2940;SDS011;1480;51.456;6.670;2023-11-19T14:45:35;8.93;;;2.50;;
2940;SDS011;1480;51.456;6.670;2023-11-19T14:48:02;3.90;;;2.07;;
2940;SDS011;1480;51.456;6.670;2023-11-19T14:50:29;9.40;;;2.00;;
2940;SDS011;1480;51.456;6.670;2023-11-19T14:52:56;7.17;;;2.10;;
2940;SDS011;1480;51.456;6.670;2023-11-19T14:55:23;21.20;;;3.00;;
2940;SDS011;1480;51.456;6.670;2023-11-19T14:57:52;11.90;;;2.47;;
2940;SDS011;1480;51.456;6.670;2023-11-19T15:00:19;7.60;;;2.20;;
2940;SDS011;1480;51.456;6.670;2023-11-19T15:02:46;7.30;;;2.47;;
2940;SDS011;1480;51.456;6.670;2023-11-19T15:05:13;10.10;;;2.83;;
2940;SDS011;1480;51.456;6.670;2023-11-19T15:07:39;14.53;;;3.07;;
2940;SDS011;1480;51.456;6.670;2023-11-19T15:10:07;13.97;;;2.53;;
2940;SDS011;1480;51.456;6.670;2023-11-19T15:12:35;7.27;;;2.20;;
2940;SDS011;1480;51.456;6.670;2023-11-19T15:15:07;8.27;;;2.53;;